Time;durP1;ratioP1;P1;durP2;ratioP2;P2;SDS_P1;SDS_P2;PMS_P1;PMS_P2;Temp;Humidity;BMP_temperature;BMP_pressure;BME280_temperature;BME280_humidity;BME280_pressure;Samples;Min_cycle;Max_cycle;Signal;HPM_P1;HPM_P2
2023/09/01 00:01:17;;;;;;;10.40;6.50;;;;;;;12.09;99.89;100524.81;7390643;19;20367;-61
2023/09/01 00:04:04;;;;;;;8.95;6.38;;;;;;;12.06;99.96;100527.81;7388690;19;20365;-62
2023/09/01 00:06:31;;;;;;;9.25;6.43;;;;;;;12.03;100.00;100525.56;7387408;19;20388;-61
2023/09/01 00:08:58;;;;;;;7.28;6.45;;;;;;;12.01;100.00;100519.59;7388980;19;20882;-62
2023/09/01 00:11:25;;;;;;;10.80;7.13;;;;;;;11.99;100.00;100521.63;7390901;19;20376;-60
2023/09/01 00:13:52;;;;;;;8.15;6.53;;;;;;;11.97;100.00;100523.66;7386402;19;20752;-62
2023/09/01 00:16:18;;;;;;;9.25;6.80;;;;;;;11.94;100.00;100513.38;7389388;19;20386;-60
2023/09/01 00:18:45;;;;;;;8.43;7.00;;;;;;;11.91;100.00;100516.44;7385997;19;20955;-61
2023/09/01 00:21:12;;;;;;;8.52;7.22;;;;;;;11.87;100.00;100512.47;7388520;19;20357;-62
2023/09/01 00:23:40;;;;;;;7.72;6.93;;;;;;;11.85;100.00;100520.63;7389422;19;20993;-61
2023/09/01 00:26:07;;;;;;;11.20;7.40;;;;;;;11.82;100.00;100513.84;7389509;19;20383;-61
2023/09/01 00:28:33;;;;;;;9.90;7.90;;;;;;;11.81;100.00;100517.50;7386391;19;20375;-61
2023/09/01 00:31:00;;;;;;;8.25;7.30;;;;;;;11.78;100.00;100520.53;7390358;19;20711;-61
2023/09/01 00:33:29;;;;;;;10.07;7.65;;;;;;;11.77;100.00;100523.38;7385705;19;20372;-61
2023/09/01 00:35:58;;;;;;;10.77;7.53;;;;;;;11.74;100.00;100521.91;7387799;19;20385;-61
2023/09/01 00:38:25;;;;;;;10.02;7.40;;;;;;;11.73;100.00;100522.94;7386247;19;20448;-61
2023/09/01 00:40:53;;;;;;;9.10;7.90;;;;;;;11.73;100.00;100509.66;7390203;19;20440;-62
2023/09/01 00:43:19;;;;;;;9.02;7.82;;;;;;;11.74;100.00;100519.25;7385952;19;20362;-60
2023/09/01 00:45:47;;;;;;;8.52;7.60;;;;;;;11.73;100.00;100514.97;7388051;19;20450;-61
2023/09/01 00:48:14;;;;;;;9.75;7.65;;;;;;;11.73;100.00;100507.00;7388750;19;20424;-61
2023/09/01 00:50:41;;;;;;;8.80;7.90;;;;;;;11.73;100.00;100520.28;7387194;19;20552;-61
2023/09/01 00:53:09;;;;;;;11.68;7.97;;;;;;;11.73;100.00;100511.47;7389003;19;20369;-60
2023/09/01 00:55:36;;;;;;;10.53;7.83;;;;;;;11.73;100.00;100511.47;7385883;19;20367;-62
2023/09/01 00:58:03;;;;;;;10.45;7.88;;;;;;;11.73;100.00;100507.00;7386011;19;20888;-60
2023/09/01 01:00:32;;;;;;;11.27;8.38;;;;;;;11.72;100.00;100510.66;7385779;19;20376;-61
2023/09/01 01:03:08;;;;;;;9.70;8.35;;;;;;;11.70;100.00;100523.31;7387144;19;20369;-60
2023/09/01 01:05:47;;;;;;;9.37;8.10;;;;;;;11.68;100.00;100514.69;7387034;19;20340;-61
2023/09/01 01:08:22;;;;;;;10.80;8.05;;;;;;;11.67;100.00;100521.03;7388795;19;20453;-60
2023/09/01 01:10:58;;;;;;;9.50;7.60;;;;;;;11.62;100.00;100510.97;7388152;19;20824;-61
2023/09/01 01:13:30;;;;;;;10.48;8.40;;;;;;;11.61;100.00;100516.47;7383458;19;20451;-60
2023/09/01 01:15:59;;;;;;;9.43;8.37;;;;;;;11.58;100.00;100509.69;7387019;19;20430;-61
2023/09/01 01:18:28;;;;;;;10.27;8.55;;;;;;;11.56;100.00;100510.88;7383303;19;20375;-61
2023/09/01 01:21:22;;;;;;;10.75;7.88;;;;;;;11.52;100.00;100506.97;7385934;19;20353;-60
2023/09/01 01:23:51;;;;;;;11.32;8.75;;;;;;;11.49;100.00;100510.78;7387262;19;20360;-61
2023/09/01 01:26:18;;;;;;;9.70;8.10;;;;;;;11.49;100.00;100513.44;7386871;19;20361;-61
2023/09/01 01:28:45;;;;;;;10.50;8.43;;;;;;;11.47;100.00;100518.13;7386103;19;20380;-61
2023/09/01 01:31:12;;;;;;;11.25;8.90;;;;;;;11.46;100.00;100510.34;7383453;19;21226;-61
2023/09/01 01:33:56;;;;;;;9.70;8.17;;;;;;;11.44;100.00;100513.19;7388675;19;20407;-61
2023/09/01 01:36:37;;;;;;;10.10;8.52;;;;;;;11.45;100.00;100514.00;7382881;19;20436;-61
2023/09/01 01:39:15;;;;;;;9.85;8.13;;;;;;;11.43;100.00;100517.69;7384997;19;20360;-61
2023/09/01 01:41:54;;;;;;;9.48;8.02;;;;;;;11.43;100.00;100512.38;7385603;19;20371;-61
2023/09/01 01:44:38;;;;;;;10.60;7.93;;;;;;;11.42;100.00;100516.00;7383863;19;20379;-60
2023/09/01 01:47:07;;;;;;;9.80;8.63;;;;;;;11.44;100.00;100515.84;7380633;19;20450;-59
2023/09/01 01:49:34;;;;;;;9.70;8.15;;;;;;;11.43;100.00;100523.00;7375538;19;20383;-61
2023/09/01 01:52:01;;;;;;;9.43;8.45;;;;;;;11.44;100.00;100521.16;7381240;19;20379;-61
2023/09/01 01:54:30;;;;;;;10.75;8.55;;;;;;;11.44;100.00;100523.81;7378863;19;20948;-61
2023/09/01 01:56:57;;;;;;;10.23;8.10;;;;;;;11.45;100.00;100529.94;7379091;19;20975;-60
2023/09/01 01:59:24;;;;;;;11.77;7.82;;;;;;;11.45;100.00;100537.91;7373273;19;20402;-61
2023/09/01 02:01:51;;;;;;;11.13;8.40;;;;;;;11.43;100.00;100533.63;7379688;19;20401;-61
2023/09/01 02:04:18;;;;;;;10.48;7.93;;;;;;;11.41;100.00;100530.31;7378312;19;20356;-58
2023/09/01 02:06:45;;;;;;;10.75;8.45;;;;;;;11.42;100.00;100531.13;7383708;19;20896;-61
2023/09/01 02:09:13;;;;;;;10.00;8.95;;;;;;;11.42;100.00;100531.94;7379731;19;20355;-61
2023/09/01 02:11:40;;;;;;;11.75;8.48;;;;;;;11.42;100.00;100521.34;7378455;19;20413;-61
2023/09/01 02:14:07;;;;;;;10.70;9.05;;;;;;;11.43;100.00;100525.66;7380357;19;20359;-61
2023/09/01 02:16:35;;;;;;;10.87;8.73;;;;;;;11.43;100.00;100523.00;7379987;19;21438;-61
2023/09/01 02:19:01;;;;;;;10.40;8.82;;;;;;;11.44;100.00;100518.50;7379523;19;20414;-61
2023/09/01 02:21:28;;;;;;;9.52;8.55;;;;;;;11.46;100.00;100515.66;7380780;19;20348;-61
2023/09/01 02:23:55;;;;;;;11.52;8.23;;;;;;;11.46;100.00;100520.97;7381953;19;20585;-60
2023/09/01 02:26:23;;;;;;;9.45;8.50;;;;;;;11.45;100.00;100516.66;7377220;19;20328;-61
2023/09/01 02:28:50;;;;;;;10.93;8.45;;;;;;;11.46;100.00;100526.28;7380495;19;20939;-61
2023/09/01 02:31:17;;;;;;;9.43;8.43;;;;;;;11.45;100.00;100521.97;7380292;19;20420;-60
2023/09/01 02:33:44;;;;;;;11.15;8.55;;;;;;;11.46;100.00;100532.41;7379257;19;20372;-61
2023/09/01 02:36:29;;;;;;;10.57;8.07;;;;;;;11.47;100.00;100535.88;7381266;19;20379;-60
2023/09/01 02:38:57;;;;;;;10.32;8.23;;;;;;;11.44;100.00;100526.47;7380243;19;20844;-59
2023/09/01 02:41:24;;;;;;;10.45;8.48;;;;;;;11.43;100.00;100525.66;7379257;19;20424;-61
2023/09/01 02:43:52;;;;;;;11.67;8.63;;;;;;;11.43;100.00;100530.13;7375641;19;21069;-61
2023/09/01 02:46:20;;;;;;;11.80;8.77;;;;;;;11.43;100.00;100530.97;7378913;19;20739;-61
2023/09/01 02:48:47;;;;;;;10.18;7.97;;;;;;;11.42;100.00;100529.31;7377726;19;20383;-61
2023/09/01 02:51:14;;;;;;;10.02;8.45;;;;;;;11.41;100.00;100525.00;7378470;19;20928;-61
2023/09/01 02:53:41;;;;;;;11.65;8.27;;;;;;;11.41;100.00;100530.31;7379339;19;20368;-61
2023/09/01 02:56:08;;;;;;;11.88;8.75;;;;;;;11.39;100.00;100532.34;7379086;19;20428;-61
2023/09/01 02:58:36;;;;;;;9.55;8.30;;;;;;;11.39;100.00;100535.00;7379910;19;20392;-61
2023/09/01 03:01:08;;;;;;;12.47;8.63;;;;;;;11.38;100.00;100532.50;7375032;19;20381;-61
2023/09/01 03:03:40;;;;;;;11.13;8.33;;;;;;;11.36;100.00;100532.69;7378086;19;20345;-61
2023/09/01 03:06:08;;;;;;;11.32;7.90;;;;;;;11.33;100.00;100527.75;7385007;19;20356;-61
2023/09/01 03:08:37;;;;;;;10.00;8.25;;;;;;;11.33;100.00;100532.25;7384714;19;20368;-61
2023/09/01 03:11:04;;;;;;;11.43;8.68;;;;;;;11.31;100.00;100529.78;7385433;19;20376;-60
2023/09/01 03:13:32;;;;;;;10.23;8.20;;;;;;;11.30;100.00;100538.72;7387446;19;20848;-60
2023/09/01 03:15:58;;;;;;;9.37;8.43;;;;;;;11.28;100.00;100530.13;7385138;19;20425;-62
2023/09/01 03:18:25;;;;;;;9.82;8.52;;;;;;;11.26;100.00;100526.81;7382324;19;20361;-61
2023/09/01 03:20:53;;;;;;;12.90;8.57;;;;;;;11.26;100.00;100534.78;7387349;19;20436;-61
2023/09/01 03:23:21;;;;;;;10.40;8.55;;;;;;;11.26;100.00;100532.13;7385810;19;20360;-61
2023/09/01 03:25:54;;;;;;;13.45;9.05;;;;;;;11.23;100.00;100528.03;7384354;19;20352;-61
2023/09/01 03:28:22;;;;;;;14.98;10.13;;;;;;;11.23;100.00;100532.53;7382402;19;20356;-60
2023/09/01 03:30:49;;;;;;;9.82;8.82;;;;;;;11.23;100.00;100536.00;7385536;19;20401;-61
2023/09/01 03:33:18;;;;;;;14.15;9.48;;;;;;;11.21;100.00;100543.31;7385346;19;20897;-61
2023/09/01 03:35:45;;;;;;;11.35;9.15;;;;;;;11.20;100.00;100528.41;7382677;19;20467;-61
2023/09/01 03:38:11;;;;;;;10.77;9.00;;;;;;;11.18;100.00;100538.38;7385261;19;20440;-61
2023/09/01 03:40:39;;;;;;;12.48;9.40;;;;;;;11.19;100.00;100544.50;7384137;19;20456;-61
2023/09/01 03:43:09;;;;;;;11.65;9.13;;;;;;;11.19;100.00;100547.16;7385507;19;20375;-62
2023/09/01 03:45:36;;;;;;;13.38;9.52;;;;;;;11.19;100.00;100549.81;7383256;19;20384;-61
2023/09/01 03:48:04;;;;;;;12.18;9.35;;;;;;;11.19;100.00;100557.78;7385803;19;20376;-60
2023/09/01 03:50:33;;;;;;;11.77;9.35;;;;;;;11.19;100.00;100557.78;7383349;19;20372;-61
2023/09/01 03:53:01;;;;;;;10.93;9.07;;;;;;;11.16;100.00;100548.34;7382099;19;20382;-60
2023/09/01 03:55:28;;;;;;;12.43;8.93;;;;;;;11.16;100.00;100551.00;7383763;19;20372;-61
2023/09/01 03:57:54;;;;;;;12.02;9.20;;;;;;;11.16;100.00;100547.53;7383306;19;20397;-61
2023/09/01 04:00:22;;;;;;;12.00;9.40;;;;;;;11.15;100.00;100545.88;7384873;19;20658;-61
2023/09/01 04:02:50;;;;;;;11.93;9.35;;;;;;;11.12;100.00;100546.25;7381571;19;20380;-61
2023/09/01 04:05:17;;;;;;;10.90;9.40;;;;;;;11.12;100.00;100554.22;7382900;19;20414;-61
2023/09/01 04:07:44;;;;;;;12.70;8.65;;;;;;;11.10;100.00;100553.56;7385679;19;20351;-61
2023/09/01 04:10:11;;;;;;;11.60;9.43;;;;;;;11.08;100.00;100551.09;7378461;19;20383;-62
2023/09/01 04:12:38;;;;;;;13.93;9.57;;;;;;;11.08;100.00;100558.25;7384369;19;20856;-60
2023/09/01 04:15:06;;;;;;;12.93;9.82;;;;;;;11.06;100.00;100557.59;7380491;19;20380;-61
2023/09/01 04:17:35;;;;;;;13.38;9.57;;;;;;;11.04;100.00;100554.28;7381882;19;20876;-61
2023/09/01 04:20:05;;;;;;;11.60;9.40;;;;;;;11.02;100.00;100551.81;7386078;19;20907;-60
2023/09/01 04:22:32;;;;;;;15.40;10.27;;;;;;;11.00;100.00;100557.28;7378112;19;20368;-62
2023/09/01 04:24:59;;;;;;;12.57;9.70;;;;;;;11.02;100.00;100557.13;7380492;19;20377;-61
2023/09/01 04:27:26;;;;;;;12.40;9.90;;;;;;;11.04;100.00;100562.25;7382119;19;20703;-61
2023/09/01 04:29:54;;;;;;;13.30;9.15;;;;;;;11.04;100.00;100559.59;7382270;19;20377;-61
2023/09/01 04:32:36;;;;;;;14.10;9.23;;;;;;;11.03;100.00;100561.44;7383311;19;20372;-61
2023/09/01 04:35:04;;;;;;;14.02;10.18;;;;;;;11.05;100.00;100561.25;7383759;19;20872;-62
2023/09/01 04:37:32;;;;;;;12.30;9.75;;;;;;;11.07;100.00;100560.06;7385529;19;20361;-63
2023/09/01 04:39:58;;;;;;;13.63;9.60;;;;;;;11.12;100.00;100556.88;7379390;19;20367;-63
2023/09/01 04:42:25;;;;;;;12.65;9.45;;;;;;;11.14;100.00;100561.00;7378717;19;20367;-64
2023/09/01 04:44:52;;;;;;;12.37;9.30;;;;;;;11.20;100.00;100554.13;7386163;19;20393;-64
2023/09/01 04:47:19;;;;;;;12.30;9.48;;;;;;;11.24;100.00;100566.00;7385177;19;20349;-63
2023/09/01 04:49:46;;;;;;;12.30;9.05;;;;;;;11.26;100.00;100564.00;7376633;19;20411;-64
2023/09/01 04:52:14;;;;;;;12.32;9.43;;;;;;;11.30;100.00;100569.78;7385287;19;20376;-64
2023/09/01 04:54:42;;;;;;;10.53;8.70;;;;;;;11.36;100.00;100572.53;7380305;19;20429;-64
2023/09/01 04:57:08;;;;;;;12.73;9.93;;;;;;;11.41;100.00;100566.66;7385331;19;20435;-63
2023/09/01 04:59:35;;;;;;;12.90;9.50;;;;;;;11.45;100.00;100572.44;7384721;19;20377;-63
2023/09/01 05:02:02;;;;;;;13.23;8.73;;;;;;;11.52;100.00;100568.88;7385171;19;20461;-63
2023/09/01 05:04:29;;;;;;;12.27;9.40;;;;;;;11.59;100.00;100576.94;7384062;19;20445;-63
2023/09/01 05:06:56;;;;;;;12.05;8.65;;;;;;;11.63;100.00;100572.91;7385439;19;20432;-63
2023/09/01 05:09:23;;;;;;;11.02;8.10;;;;;;;11.68;100.00;100572.34;7386059;19;20368;-63
2023/09/01 05:11:50;;;;;;;9.63;7.97;;;;;;;11.73;100.00;100576.09;7386419;19;20352;-63
2023/09/01 05:14:16;;;;;;;9.00;7.60;;;;;;;11.74;100.00;100583.03;7382648;19;20754;-63
2023/09/01 05:16:43;;;;;;;10.83;8.00;;;;;;;11.79;100.00;100590.47;7383047;19;20372;-63
2023/09/01 05:19:10;;;;;;;12.43;8.45;;;;;;;11.81;100.00;100594.56;7380891;19;20348;-63
2023/09/01 05:21:37;;;;;;;12.68;7.93;;;;;;;11.84;100.00;100594.22;7381803;19;20356;-64
2023/09/01 05:24:04;;;;;;;10.57;7.68;;;;;;;11.90;100.00;100586.53;7380524;19;20906;-64
2023/09/01 05:26:31;;;;;;;10.40;7.50;;;;;;;11.95;100.00;100584.16;7384671;19;20383;-64
2023/09/01 05:28:58;;;;;;;8.57;7.30;;;;;;;12.02;100.00;100580.53;7383116;19;20360;-64
2023/09/01 05:31:25;;;;;;;11.02;7.43;;;;;;;12.13;100.00;100586.38;7381864;19;20393;-64
2023/09/01 05:33:52;;;;;;;10.50;7.07;;;;;;;12.21;100.00;100584.44;7381156;19;20361;-64
2023/09/01 05:36:19;;;;;;;8.20;6.43;;;;;;;12.31;100.00;100580.66;7383632;19;20445;-64
2023/09/01 05:38:47;;;;;;;9.85;6.97;;;;;;;12.40;100.00;100574.19;7377698;19;20376;-63
2023/09/01 05:41:14;;;;;;;8.82;6.28;;;;;;;12.50;100.00;100582.69;7384859;19;20372;-64
2023/09/01 05:43:41;;;;;;;10.23;6.53;;;;;;;12.61;100.00;100579.50;7381652;19;20709;-63
2023/09/01 05:46:08;;;;;;;10.40;5.63;;;;;;;12.71;100.00;100584.53;7384791;19;20381;-63
2023/09/01 05:48:36;;;;;;;9.65;5.55;;;;;;;12.84;100.00;100583.81;7384734;19;20389;-63
2023/09/01 05:51:03;;;;;;;7.97;5.38;;;;;;;12.91;100.00;100584.69;7379140;19;21675;-64
2023/09/01 05:53:30;;;;;;;7.43;5.53;;;;;;;12.98;100.00;100593.53;7384899;19;20360;-64
2023/09/01 05:55:57;;;;;;;8.95;5.68;;;;;;;13.06;100.00;100587.25;7380562;19;21062;-64
2023/09/01 05:58:24;;;;;;;8.50;5.45;;;;;;;13.15;100.00;100585.25;7388062;19;20362;-64
2023/09/01 06:00:51;;;;;;;6.38;4.90;;;;;;;13.22;100.00;100583.47;7394866;19;20355;-64
2023/09/01 06:03:17;;;;;;;8.93;5.30;;;;;;;13.30;100.00;100593.97;7395476;19;20397;-64
2023/09/01 06:05:44;;;;;;;8.25;5.10;;;;;;;13.37;100.00;100594.88;7393438;19;20372;-64
2023/09/01 06:08:11;;;;;;;12.90;4.93;;;;;;;13.48;100.00;100606.00;7393050;19;20411;-64
2023/09/01 06:10:38;;;;;;;7.85;5.00;;;;;;;13.59;100.00;100600.09;7394344;19;20412;-63
2023/09/01 06:13:05;;;;;;;7.00;4.70;;;;;;;13.69;99.98;100600.56;7395050;19;20364;-64
2023/09/01 06:15:32;;;;;;;5.82;4.57;;;;;;;13.79;99.63;100598.38;7389563;19;20378;-64
2023/09/01 06:17:59;;;;;;;6.13;4.10;;;;;;;13.87;98.61;100600.84;7392224;19;20767;-64
2023/09/01 06:20:28;;;;;;;7.10;4.22;;;;;;;13.99;98.61;100593.09;7395255;19;20356;-64
2023/09/01 06:22:55;;;;;;;7.15;4.00;;;;;;;14.10;98.05;100597.03;7394062;19;20369;-64
2023/09/01 06:25:22;;;;;;;7.75;4.45;;;;;;;14.19;97.72;100595.81;7395136;19;20350;-64
2023/09/01 06:27:49;;;;;;;4.90;3.63;;;;;;;14.31;97.48;100600.59;7390598;19;20357;-64
2023/09/01 06:30:16;;;;;;;5.50;3.75;;;;;;;14.42;96.45;100600.81;7391275;19;20352;-63
2023/09/01 06:32:43;;;;;;;6.77;3.87;;;;;;;14.54;96.13;100609.06;7393579;19;20705;-63
2023/09/01 06:35:14;;;;;;;9.05;3.70;;;;;;;14.67;95.88;100611.75;7388568;19;20371;-63
2023/09/01 06:37:41;;;;;;;5.88;3.70;;;;;;;14.77;95.15;100610.53;7394140;19;20378;-64
2023/09/01 06:40:08;;;;;;;8.27;4.10;;;;;;;14.88;94.91;100612.63;7397229;19;20361;-63
2023/09/01 06:42:35;;;;;;;6.15;3.78;;;;;;;14.92;93.32;100613.84;7401255;19;20340;-63
2023/09/01 06:45:03;;;;;;;9.18;4.30;;;;;;;15.03;93.56;100607.88;7401366;19;20348;-63
2023/09/01 06:47:30;;;;;;;6.38;3.88;;;;;;;15.19;94.06;100609.28;7399431;19;20377;-63
2023/09/01 06:49:57;;;;;;;6.63;4.10;;;;;;;15.29;92.37;100611.53;7392717;19;20364;-62
2023/09/01 06:52:24;;;;;;;7.85;3.53;;;;;;;15.40;92.02;100616.25;7396212;19;20341;-63
2023/09/01 06:54:51;;;;;;;7.63;4.50;;;;;;;15.47;92.00;100622.41;7399280;19;20340;-62
2023/09/01 06:57:18;;;;;;;6.57;3.40;;;;;;;15.57;91.75;100615.81;7402319;19;20345;-63
2023/09/01 06:59:45;;;;;;;5.60;3.80;;;;;;;15.69;91.06;100616.81;7399024;19;20432;-63
2023/09/01 07:02:11;;;;;;;6.35;3.42;;;;;;;15.80;90.16;100618.03;7399091;19;20694;-63
2023/09/01 07:04:38;;;;;;;6.93;4.05;;;;;;;15.92;89.58;100612.84;7400732;19;20350;-62
2023/09/01 07:07:05;;;;;;;7.57;3.85;;;;;;;16.03;89.14;100610.31;7402124;19;20396;-62
2023/09/01 07:09:31;;;;;;;7.05;4.10;;;;;;;16.10;86.13;100623.66;7395059;19;20349;-62
2023/09/01 07:11:58;;;;;;;7.80;3.80;;;;;;;16.19;87.06;100619.69;7400683;19;20756;-62
2023/09/01 07:14:25;;;;;;;7.60;3.70;;;;;;;16.30;87.11;100621.72;7399099;19;20439;-62
2023/09/01 07:16:52;;;;;;;6.40;3.40;;;;;;;16.36;85.41;100616.53;7401408;19;20364;-63
2023/09/01 07:19:18;;;;;;;5.97;3.75;;;;;;;16.35;85.28;100625.63;7399668;19;20426;-63
2023/09/01 07:21:45;;;;;;;8.07;3.83;;;;;;;16.36;85.13;100624.56;7398307;19;20363;-63
2023/09/01 07:24:12;;;;;;;6.63;3.55;;;;;;;16.43;85.98;100628.84;7400366;19;20385;-63
2023/09/01 07:26:39;;;;;;;6.00;3.22;;;;;;;16.52;86.20;100624.88;7401632;19;20898;-63
2023/09/01 07:29:05;;;;;;;6.23;3.90;;;;;;;16.65;86.02;100629.31;7400040;19;20373;-63
2023/09/01 07:31:32;;;;;;;5.07;3.10;;;;;;;16.77;85.42;100621.41;7397837;19;20778;-62
2023/09/01 07:33:59;;;;;;;6.28;2.95;;;;;;;16.86;84.82;100614.78;7399629;19;20477;-63
2023/09/01 07:36:26;;;;;;;7.38;3.30;;;;;;;17.00;85.34;100615.50;7399692;19;20394;-62
2023/09/01 07:38:53;;;;;;;7.25;3.63;;;;;;;17.09;82.93;100613.38;7399028;19;20367;-63
2023/09/01 07:41:20;;;;;;;6.63;3.60;;;;;;;17.24;82.69;100616.50;7400869;19;20396;-63
2023/09/01 07:43:48;;;;;;;5.72;3.45;;;;;;;17.38;81.12;100627.91;7398582;19;20329;-62
2023/09/01 07:46:15;;;;;;;6.65;3.30;;;;;;;17.47;81.04;100629.28;7400246;19;20352;-63
2023/09/01 07:48:42;;;;;;;7.22;3.63;;;;;;;17.60;81.00;100635.56;7398529;19;20396;-63
2023/09/01 07:51:09;;;;;;;6.15;3.75;;;;;;;17.70;79.94;100635.84;7393998;19;20461;-62
2023/09/01 07:53:36;;;;;;;7.30;3.28;;;;;;;17.76;80.00;100634.94;7398479;19;20364;-63
2023/09/01 07:56:04;;;;;;;5.87;3.27;;;;;;;17.85;79.21;100628.28;7398861;19;20420;-62
2023/09/01 07:58:31;;;;;;;6.38;2.83;;;;;;;17.95;79.46;100632.28;7396862;19;20385;-63
2023/09/01 08:00:58;;;;;;;7.88;4.25;;;;;;;18.04;77.88;100636.28;7399844;19;20364;-62
2023/09/01 08:03:26;;;;;;;5.63;3.42;;;;;;;18.09;77.34;100639.16;7396405;19;20861;-63
2023/09/01 08:05:53;;;;;;;4.35;2.80;;;;;;;18.14;77.55;100636.59;7397721;19;20435;-63
2023/09/01 08:08:19;;;;;;;9.15;3.38;;;;;;;18.20;78.01;100629.50;7395977;19;20762;-62
2023/09/01 08:10:46;;;;;;;6.45;3.28;;;;;;;18.25;77.74;100629.63;7393485;19;20444;-61
2023/09/01 08:13:13;;;;;;;5.95;3.00;;;;;;;18.39;78.03;100630.28;7397219;19;20867;-61
2023/09/01 08:15:40;;;;;;;4.57;2.75;;;;;;;18.52;76.91;100628.22;7397286;19;20364;-61
2023/09/01 08:18:06;;;;;;;7.28;3.45;;;;;;;18.65;75.73;100632.56;7400363;19;20360;-62
2023/09/01 08:20:33;;;;;;;5.97;2.78;;;;;;;18.77;75.25;100629.09;7396783;19;20352;-61
2023/09/01 08:23:00;;;;;;;4.85;2.60;;;;;;;18.93;75.94;100623.91;7398309;19;20386;-61
2023/09/01 08:25:27;;;;;;;4.82;2.45;;;;;;;19.08;75.33;100626.13;7397125;19;20361;-61
2023/09/01 08:27:54;;;;;;;6.82;3.10;;;;;;;19.15;73.11;100632.22;7398138;19;20438;-62
2023/09/01 08:30:21;;;;;;;12.18;3.20;;;;;;;19.27;74.43;100623.31;7395613;19;20381;-62
2023/09/01 08:32:48;;;;;;;4.78;2.38;;;;;;;19.38;73.54;100630.59;7398140;19;20370;-61
2023/09/01 08:35:15;;;;;;;5.50;2.60;;;;;;;19.45;73.30;100617.00;7397530;19;20356;-62
2023/09/01 08:37:42;;;;;;;7.05;2.70;;;;;;;19.51;72.28;100624.94;7398732;19;20361;-62
2023/09/01 08:40:11;;;;;;;7.03;2.67;;;;;;;19.61;73.25;100618.13;7398639;19;20352;-61
2023/09/01 08:42:46;;;;;;;5.78;2.72;;;;;;;19.75;72.98;100609.59;7394377;19;20868;-62
2023/09/01 08:45:15;;;;;;;6.25;3.63;;;;;;;19.82;70.42;100616.72;7395806;19;20376;-62
2023/09/01 08:47:48;;;;;;;7.38;3.05;;;;;;;19.89;69.67;100629.00;7398014;19;20428;-62
2023/09/01 08:50:17;;;;;;;6.35;3.20;;;;;;;19.95;68.51;100624.53;7395404;19;20376;-62
2023/09/01 08:52:46;;;;;;;5.78;3.10;;;;;;;19.99;67.47;100614.91;7398066;19;20371;-62
2023/09/01 08:55:14;;;;;;;6.38;3.05;;;;;;;20.01;68.02;100628.16;7398924;19;20432;-61
2023/09/01 08:57:41;;;;;;;6.22;2.60;;;;;;;20.00;67.59;100626.50;7395590;19;20352;-62
2023/09/01 09:00:09;;;;;;;5.78;2.60;;;;;;;20.03;68.04;100620.66;7396721;19;20746;-62
2023/09/01 09:02:40;;;;;;;8.25;2.90;;;;;;;20.18;68.74;100618.25;7395276;19;20819;-62
2023/09/01 09:05:23;;;;;;;5.97;2.80;;;;;;;20.41;67.95;100611.13;7396007;19;20754;-62
2023/09/01 09:08:06;;;;;;;6.80;2.50;;;;;;;20.70;67.41;100615.44;7398640;19;20404;-62
2023/09/01 09:10:38;;;;;;;6.15;2.60;;;;;;;20.87;66.32;100610.06;7394754;19;20369;-62
2023/09/01 09:13:29;;;;;;;6.40;2.58;;;;;;;21.00;64.67;100619.69;7394950;19;20348;-62
2023/09/01 09:16:13;;;;;;;7.25;2.88;;;;;;;21.01;62.24;100610.53;7397541;19;20883;-62
2023/09/01 09:18:42;;;;;;;7.18;2.90;;;;;;;21.05;62.41;100610.84;7397904;19;20412;-62
2023/09/01 09:21:26;;;;;;;6.07;2.70;;;;;;;21.17;62.40;100615.09;7392655;19;20368;-62
2023/09/01 09:23:55;;;;;;;6.68;2.83;;;;;;;21.28;61.76;100615.25;7397092;19;20454;-61
2023/09/01 09:26:41;;;;;;;6.30;2.83;;;;;;;21.39;61.93;100611.63;7395089;19;20446;-61
2023/09/01 09:29:11;;;;;;;5.72;2.55;;;;;;;21.53;61.32;100612.94;7396413;19;20729;-62
2023/09/01 09:31:44;;;;;;;7.35;2.67;;;;;;;21.62;61.19;100604.41;7395642;19;20373;-62
2023/09/01 09:34:19;;;;;;;8.70;2.97;;;;;;;21.73;59.84;100603.44;7395305;19;20369;-62
2023/09/01 09:36:48;;;;;;;6.38;2.90;;;;;;;21.85;60.35;100598.75;7396094;19;20369;-62
2023/09/01 09:39:26;;;;;;;7.63;3.08;;;;;;;22.07;60.10;100611.41;7393814;19;20369;-62
2023/09/01 09:41:54;;;;;;;7.03;2.80;;;;;;;22.17;58.19;100611.53;7394766;19;20352;-62
2023/09/01 09:44:35;;;;;;;5.55;2.95;;;;;;;22.32;57.73;100609.00;7396770;19;20343;-62
2023/09/01 09:47:10;;;;;;;8.63;2.90;;;;;;;22.44;56.94;100602.59;7394677;19;20381;-62
2023/09/01 09:49:38;;;;;;;7.05;3.03;;;;;;;22.60;57.37;100607.91;7397451;19;20348;-62
2023/09/01 09:52:09;;;;;;;7.47;2.75;;;;;;;22.77;56.90;100606.97;7394455;19;20393;-63
2023/09/01 09:54:43;;;;;;;7.85;3.28;;;;;;;22.95;56.45;100609.28;7396216;19;20438;-62
2023/09/01 09:57:15;;;;;;;7.65;3.33;;;;;;;23.03;54.43;100618.81;7393798;19;20687;-63
2023/09/01 09:59:46;;;;;;;5.85;2.70;;;;;;;23.16;55.34;100607.56;7396656;19;20354;-63
2023/09/01 10:02:29;;;;;;;7.65;3.20;;;;;;;23.28;53.90;100617.34;7394907;19;21350;-62
2023/09/01 10:04:58;;;;;;;6.38;3.05;;;;;;;23.18;53.13;100621.59;7387419;19;20487;-62
2023/09/01 10:07:25;;;;;;;4.60;2.73;;;;;;;23.33;54.55;100623.59;7394194;19;20860;-62
2023/09/01 10:09:52;;;;;;;5.47;2.70;;;;;;;23.52;53.75;100625.88;7394544;19;20365;-63
2023/09/01 10:12:19;;;;;;;5.85;2.70;;;;;;;23.60;53.84;100623.47;7392950;19;20380;-63
2023/09/01 10:14:49;;;;;;;5.67;2.53;;;;;;;23.67;54.18;100617.00;7389498;19;20356;-61
2023/09/01 10:17:18;;;;;;;6.20;2.80;;;;;;;23.69;52.16;100625.69;7393789;19;20364;-62
2023/09/01 10:19:48;;;;;;;6.82;3.05;;;;;;;23.72;52.62;100625.19;7394217;19;20367;-62
2023/09/01 10:22:16;;;;;;;7.60;3.20;;;;;;;23.89;52.75;100625.00;7392312;19;20906;-63
2023/09/01 10:25:16;;;;;;;8.70;2.83;;;;;;;23.89;50.89;100625.81;7391752;19;20374;-62
2023/09/01 10:28:15;;;;;;;7.45;2.60;;;;;;;23.99;50.02;100633.97;7395294;19;20340;-62
2023/09/01 10:30:44;;;;;;;5.70;2.60;;;;;;;24.17;51.46;100631.84;7391699;19;20436;-62
2023/09/01 10:33:14;;;;;;;6.13;2.15;;;;;;;24.34;50.41;100637.03;7392131;19;20368;-63
2023/09/01 10:35:50;;;;;;;5.05;2.17;;;;;;;24.21;47.85;100641.88;7391841;19;20383;-62
2023/09/01 10:38:22;;;;;;;5.25;2.00;;;;;;;24.22;49.29;100637.28;7394399;19;20366;-63
2023/09/01 10:40:53;;;;;;;5.35;2.00;;;;;;;24.14;49.29;100632.38;7394447;19;20435;-63
2023/09/01 10:43:53;;;;;;;5.00;2.00;;;;;;;24.06;49.35;100636.44;7379885;19;20727;-61
2023/09/01 10:46:24;;;;;;;6.10;2.17;;;;;;;24.13;50.30;100641.59;7390547;19;20884;-63
2023/09/01 10:49:04;;;;;;;5.30;1.90;;;;;;;24.29;49.08;100640.56;7391198;19;20448;-63
2023/09/01 10:51:39;;;;;;;4.60;1.67;;;;;;;24.48;48.54;100642.75;7390474;19;20364;-63
2023/09/01 10:54:15;;;;;;;4.67;2.00;;;;;;;24.59;48.50;100644.44;7389861;19;20368;-63
2023/09/01 10:56:55;;;;;;;4.25;1.55;;;;;;;24.47;47.53;100641.94;7390843;19;20376;-63
2023/09/01 10:59:35;;;;;;;4.72;1.77;;;;;;;24.39;47.37;100637.03;7391179;19;20952;-63
2023/09/01 11:02:22;;;;;;;5.40;1.63;;;;;;;24.13;46.88;100647.81;7388782;19;20460;-63
2023/09/01 11:04:49;;;;;;;3.70;1.30;;;;;;;24.06;47.34;100644.56;7390569;19;20766;-62
2023/09/01 11:07:16;;;;;;;4.10;1.38;;;;;;;23.99;47.96;100646.69;7392260;19;20368;-62
2023/09/01 11:09:48;;;;;;;3.78;1.48;;;;;;;24.03;47.85;100639.66;7392125;19;20906;-61
2023/09/01 11:12:15;;;;;;;5.28;1.67;;;;;;;23.91;47.51;100648.03;7389546;19;20365;-62
2023/09/01 11:14:56;;;;;;;3.75;1.10;;;;;;;23.80;48.40;100632.78;7389157;19;20378;-62
2023/09/01 11:17:43;;;;;;;3.35;1.38;;;;;;;23.77;49.33;100641.47;7389839;19;20434;-62
2023/09/01 11:20:14;;;;;;;2.90;1.10;;;;;;;23.65;48.90;100633.50;7387261;19;20688;-62
2023/09/01 11:22:42;;;;;;;3.40;1.20;;;;;;;23.55;49.66;100637.00;7387654;19;20452;-63
2023/09/01 11:25:12;;;;;;;3.43;1.40;;;;;;;23.46;50.32;100637.75;7390954;19;20736;-63
2023/09/01 11:27:47;;;;;;;3.13;1.00;;;;;;;23.22;50.44;100642.75;7394759;19;20340;-60